Time;durP1;ratioP1;P1;durP2;ratioP2;P2;SDS_P1;SDS_P2;PMS_P1;PMS_P2;Temp;Humidity;BMP_temperature;BMP_pressure;BME280_temperature;BME280_humidity;BME280_pressure;Samples;Min_cycle;Max_cycle;Signal;HPM_P1;HPM_P2
2023/12/11 00:04:57;;;;;;;0.60;0.45;;;;;;;9.09;64.61;98577.63;10520671;28;20039;-65
2023/12/11 00:09:59;;;;;;;0.73;0.73;;;;;;;9.08;64.72;98581.19;10518034;28;20857;-65
2023/12/11 00:15:01;;;;;;;2.78;1.17;;;;;;;9.06;64.88;98593.50;10518369;28;20468;-65
2023/12/11 00:20:04;;;;;;;0.63;0.63;;;;;;;9.01;65.08;98586.97;10500580;28;20135;-65
2023/12/11 00:25:07;;;;;;;0.65;0.60;;;;;;;9.00;65.05;98593.13;10501333;28;20505;-65
2023/12/11 00:30:09;;;;;;;0.50;0.50;;;;;;;9.04;64.89;98599.78;10512929;28;20121;-66
2023/12/11 00:35:11;;;;;;;1.95;0.55;;;;;;;9.08;64.82;98609.88;10498841;28;20066;-66
2023/12/11 00:40:13;;;;;;;0.77;0.70;;;;;;;9.05;64.94;98617.09;10516516;28;20071;-65
2023/12/11 00:45:15;;;;;;;1.65;0.60;;;;;;;9.13;64.66;98605.16;10498238;28;20054;-65
2023/12/11 00:50:18;;;;;;;1.90;0.68;;;;;;;9.06;64.87;98603.94;10517565;28;20052;-65
2023/12/11 00:55:19;;;;;;;1.05;0.45;;;;;;;9.06;64.90;98603.09;10517519;28;20048;-65
2023/12/11 01:00:21;;;;;;;0.90;0.80;;;;;;;9.15;64.88;98595.44;10493339;28;20286;-65
2023/12/11 01:05:24;;;;;;;2.00;0.43;;;;;;;9.19;64.76;98596.88;10517141;28;20067;-65
2023/12/11 01:10:26;;;;;;;1.50;0.63;;;;;;;9.15;64.75;98603.25;10496984;28;20508;-65
2023/12/11 01:15:28;;;;;;;1.30;0.57;;;;;;;9.13;65.04;98610.38;10517646;28;20113;-65
2023/12/11 01:20:30;;;;;;;1.90;0.60;;;;;;;9.18;64.68;98610.84;10496958;28;20199;-66
2023/12/11 01:25:32;;;;;;;1.02;0.73;;;;;;;9.20;64.43;98611.56;10516276;28;20052;-65
2023/12/11 01:30:34;;;;;;;3.03;0.88;;;;;;;9.20;64.63;98606.34;10504543;28;20044;-65
2023/12/11 01:35:37;;;;;;;0.75;0.65;;;;;;;9.25;64.20;98599.00;10496144;28;20071;-65
2023/12/11 01:40:39;;;;;;;0.80;0.47;;;;;;;9.19;64.33;98607.31;10513863;28;20511;-65
2023/12/11 01:45:42;;;;;;;1.02;0.60;;;;;;;9.13;64.38;98633.00;10514853;28;20083;-65
2023/12/11 01:50:44;;;;;;;3.38;1.00;;;;;;;9.06;64.35;98622.19;10509471;28;20141;-65
2023/12/11 01:55:48;;;;;;;1.23;1.13;;;;;;;9.11;64.13;98630.53;10497811;28;20381;-65
2023/12/11 02:00:51;;;;;;;1.25;0.77;;;;;;;9.09;63.97;98639.41;10511432;28;20142;-65
2023/12/11 02:05:53;;;;;;;4.40;1.42;;;;;;;9.20;63.57;98636.84;10515591;28;20036;-66
2023/12/11 02:10:55;;;;;;;2.45;1.30;;;;;;;9.28;63.39;98642.31;10495705;28;20395;-65
2023/12/11 02:15:57;;;;;;;2.65;0.90;;;;;;;9.33;63.41;98643.63;10514447;28;20135;-65
2023/12/11 02:20:59;;;;;;;2.95;1.33;;;;;;;9.42;63.28;98627.25;10516054;28;20040;-65
2023/12/11 02:26:09;;;;;;;0.85;0.50;;;;;;;9.50;62.99;98635.34;10513336;28;20569;-65
2023/12/11 02:31:11;;;;;;;0.40;0.40;;;;;;;9.52;63.08;98622.19;10486496;28;20063;-66
2023/12/11 02:36:14;;;;;;;1.17;0.85;;;;;;;9.58;62.98;98621.72;10509180;28;20071;-66
2023/12/11 02:41:16;;;;;;;2.72;1.08;;;;;;;9.53;62.96;98616.84;10492904;28;20048;-65
2023/12/11 02:46:18;;;;;;;1.52;1.00;;;;;;;9.47;62.92;98625.16;10516001;28;20146;-65
2023/12/11 02:51:20;;;;;;;3.00;1.10;;;;;;;9.35;63.09;98610.41;10503734;28;20144;-65
2023/12/11 02:56:22;;;;;;;1.17;0.80;;;;;;;9.41;62.83;98609.94;10503213;28;20082;-65
2023/12/11 03:01:24;;;;;;;2.65;1.30;;;;;;;9.33;62.95;98604.47;10517800;28;20345;-66
2023/12/11 03:06:26;;;;;;;3.70;1.30;;;;;;;9.30;62.82;98594.25;10520340;28;20267;-66
2023/12/11 03:11:29;;;;;;;4.03;1.27;;;;;;;9.33;62.82;98591.44;10502863;28;20048;-66
2023/12/11 03:16:31;;;;;;;5.03;1.75;;;;;;;9.32;62.53;98589.75;10520260;28;20062;-65
2023/12/11 03:21:33;;;;;;;6.55;1.13;;;;;;;9.41;62.29;98583.84;10521084;28;20040;-65
2023/12/11 03:26:35;;;;;;;4.70;1.27;;;;;;;9.29;62.04;98579.56;10519612;28;20051;-65
2023/12/11 03:31:37;;;;;;;4.03;1.30;;;;;;;9.23;62.20;98560.94;10518471;28;20226;-66
2023/12/11 03:36:39;;;;;;;3.15;1.83;;;;;;;9.37;62.00;98569.38;10518300;28;20052;-66
2023/12/11 03:41:41;;;;;;;3.78;1.75;;;;;;;9.53;61.62;98575.09;10500781;28;20400;-65
2023/12/11 03:46:43;;;;;;;3.60;1.35;;;;;;;9.69;61.39;98572.16;10518530;28;21345;-65
2023/12/11 03:51:46;;;;;;;2.35;1.40;;;;;;;9.59;61.14;98574.63;10501952;28;20084;-65
2023/12/11 03:56:48;;;;;;;10.50;1.77;;;;;;;9.71;61.27;98569.44;10519242;28;20070;-65
2023/12/11 04:01:50;;;;;;;2.50;1.30;;;;;;;9.70;61.06;98557.31;10482916;28;20210;-65
2023/12/11 04:06:52;;;;;;;4.45;1.15;;;;;;;9.59;60.58;98576.38;10520176;28;20059;-66
2023/12/11 04:11:54;;;;;;;3.78;1.75;;;;;;;9.59;61.11;98565.94;10519358;28;20036;-65
2023/12/11 04:16:56;;;;;;;4.30;1.38;;;;;;;9.53;60.95;98563.81;10514138;28;20119;-65
2023/12/11 04:21:58;;;;;;;7.55;1.67;;;;;;;9.51;61.08;98561.31;10519681;28;20040;-66
2023/12/11 04:27:00;;;;;;;8.73;2.15;;;;;;;9.59;60.77;98563.34;10501591;28;20510;-65
2023/12/11 04:32:03;;;;;;;5.50;1.38;;;;;;;9.60;60.57;98560.63;10491955;28;20050;-65
2023/12/11 04:37:05;;;;;;;2.33;1.30;;;;;;;9.67;60.48;98573.25;10497400;28;20043;-66
2023/12/11 04:42:07;;;;;;;3.53;1.25;;;;;;;9.76;60.44;98569.91;10497763;28;20082;-66
2023/12/11 04:47:09;;;;;;;4.03;1.45;;;;;;;9.77;60.34;98576.78;10515956;28;20048;-66
2023/12/11 04:52:11;;;;;;;5.65;2.00;;;;;;;9.82;60.13;98566.81;10518206;28;20136;-66
2023/12/11 04:57:13;;;;;;;3.13;1.60;;;;;;;9.78;60.37;98560.16;10515729;28;20214;-66
2023/12/11 05:02:15;;;;;;;7.00;1.45;;;;;;;9.89;60.23;98552.34;10514749;28;20504;-67
2023/12/11 05:07:17;;;;;;;3.60;1.30;;;;;;;9.81;60.37;98547.69;10515850;28;20052;-66
2023/12/11 05:12:19;;;;;;;2.28;1.17;;;;;;;9.76;60.72;98549.84;10514081;28;20704;-66
2023/12/11 05:17:21;;;;;;;5.70;1.95;;;;;;;9.87;60.57;98538.56;10515490;28;20044;-66
2023/12/11 05:22:27;;;;;;;3.13;1.25;;;;;;;9.85;60.44;98530.03;10515819;28;20535;-66
2023/12/11 05:27:29;;;;;;;8.20;1.85;;;;;;;9.75;60.65;98529.09;10497674;28;20040;-66
2023/12/11 05:32:31;;;;;;;3.33;1.65;;;;;;;9.72;60.80;98513.66;10513000;28;20062;-67
2023/12/11 05:37:33;;;;;;;4.28;1.83;;;;;;;9.64;60.81;98502.03;10517320;28;20428;-66
2023/12/11 05:42:35;;;;;;;1.92;1.13;;;;;;;9.57;61.02;98500.81;10499966;28;20557;-66
2023/12/11 05:47:39;;;;;;;3.60;1.00;;;;;;;9.46;61.07;98506.03;10514640;28;20081;-64
2023/12/11 05:52:41;;;;;;;6.82;2.30;;;;;;;9.40;61.13;98513.53;10497379;28;20599;-66
2023/12/11 05:57:43;;;;;;;3.10;1.00;;;;;;;9.34;61.19;98514.81;10483044;28;20044;-66
2023/12/11 06:02:49;;;;;;;3.92;1.45;;;;;;;9.26;61.27;98514.56;10495419;28;20075;-66
2023/12/11 06:07:52;;;;;;;3.58;1.00;;;;;;;9.15;61.23;98514.59;10507811;28;20127;-66
2023/12/11 06:12:54;;;;;;;4.30;2.28;;;;;;;9.20;61.17;98516.84;10506269;28;20138;-66
2023/12/11 06:17:56;;;;;;;6.15;2.10;;;;;;;9.12;61.28;98498.31;10497172;28;20044;-65
2023/12/11 06:22:58;;;;;;;4.03;1.30;;;;;;;9.07;61.51;98477.81;10512566;28;20415;-65
2023/12/11 06:28:00;;;;;;;5.35;1.55;;;;;;;9.19;61.29;98466.44;10494864;28;20557;-66
2023/12/11 06:33:05;;;;;;;7.72;1.20;;;;;;;9.11;61.22;98461.00;10515079;28;20908;-65
2023/12/11 06:38:07;;;;;;;6.38;1.13;;;;;;;9.20;61.13;98443.81;10506971;28;20062;-67
2023/12/11 06:43:09;;;;;;;3.55;1.00;;;;;;;9.21;60.77;98450.66;10510978;28;20150;-67
2023/12/11 06:48:11;;;;;;;5.55;1.17;;;;;;;9.34;60.52;98457.41;10514424;28;20424;-66
2023/12/11 06:53:13;;;;;;;5.68;1.20;;;;;;;9.33;60.45;98442.72;10513420;28;20181;-66
2023/12/11 06:58:15;;;;;;;2.33;1.13;;;;;;;9.40;60.34;98450.91;10496049;28;20512;-66
2023/12/11 07:03:18;;;;;;;1.63;1.17;;;;;;;9.61;59.93;98455.25;10513304;28;20047;-66
2023/12/11 07:08:21;;;;;;;4.70;0.77;;;;;;;9.64;59.08;98457.66;10514350;28;20471;-67
2023/12/11 07:13:23;;;;;;;1.45;0.80;;;;;;;9.64;59.11;98455.03;10514182;28;20047;-68
2023/12/11 07:18:25;;;;;;;2.28;1.02;;;;;;;9.52;59.36;98445.53;10514277;28;20048;-66
2023/12/11 07:23:27;;;;;;;5.10;1.27;;;;;;;9.60;59.21;98458.84;10495950;28;20046;-67
2023/12/11 07:28:29;;;;;;;4.10;1.42;;;;;;;9.76;58.93;98470.69;10514277;28;20080;-67
2023/12/11 07:33:32;;;;;;;6.25;1.40;;;;;;;9.78;58.80;98463.56;10476722;28;20628;-68
2023/12/11 07:38:34;;;;;;;4.57;1.00;;;;;;;9.87;58.05;98461.03;10507188;28;20032;-66
2023/12/11 07:43:36;;;;;;;3.35;1.20;;;;;;;10.10;58.00;98469.63;10514203;28;20043;-65
2023/12/11 07:48:39;;;;;;;2.13;0.73;;;;;;;10.19;57.33;98453.22;10518656;28;20043;-65
2023/12/11 07:53:42;;;;;;;4.07;1.02;;;;;;;10.29;56.98;98447.13;10505784;28;20048;-64
2023/12/11 07:58:44;;;;;;;4.95;1.63;;;;;;;10.35;56.97;98448.41;10511739;28;20056;-66
2023/12/11 08:03:46;;;;;;;6.30;1.40;;;;;;;10.35;57.30;98461.47;10506443;28;20043;-66
2023/12/11 08:08:48;;;;;;;5.15;1.63;;;;;;;10.32;56.29;98467.78;10513751;28;20105;-66
2023/12/11 08:13:50;;;;;;;4.30;1.40;;;;;;;10.44;56.05;98456.31;10512757;28;20058;-65
2023/12/11 08:18:52;;;;;;;1.02;0.52;;;;;;;10.71;56.06;98466.28;10485650;28;20062;-66
2023/12/11 08:23:57;;;;;;;4.40;1.27;;;;;;;10.66;56.36;98457.16;10499208;28;20400;-66
2023/12/11 08:28:59;;;;;;;4.53;1.38;;;;;;;10.63;56.23;98467.84;10495992;28;20573;-66
2023/12/11 08:34:01;;;;;;;5.68;1.75;;;;;;;10.40;56.74;98474.97;10512386;28;20047;-66
2023/12/11 08:39:04;;;;;;;4.07;1.15;;;;;;;10.42;56.42;98473.91;10504425;28;20823;-66
2023/12/11 08:44:06;;;;;;;6.50;1.60;;;;;;;10.56;57.01;98478.03;10509381;28;20424;-66
2023/12/11 08:49:09;;;;;;;4.78;1.58;;;;;;;10.75;56.65;98472.06;10525552;27;20518;-66
2023/12/11 08:54:12;;;;;;;7.63;2.25;;;;;;;10.74;56.26;98475.66;10491802;28;20770;-67
2023/12/11 08:59:15;;;;;;;2.00;1.00;;;;;;;10.80;54.98;98483.00;10512556;28;20500;-66
2023/12/11 09:04:18;;;;;;;3.33;1.10;;;;;;;10.61;56.87;98494.13;10514484;28;20438;-65
2023/12/11 09:09:20;;;;;;;3.22;1.45;;;;;;;10.81;56.75;98493.31;10513804;28;20059;-65
2023/12/11 09:14:22;;;;;;;4.38;1.38;;;;;;;10.63;56.33;98489.63;10514945;28;20056;-66
2023/12/11 09:19:24;;;;;;;6.93;1.33;;;;;;;10.92;56.10;98480.19;10514480;28;20095;-67
2023/12/11 09:24:41;;;;;;;8.35;2.13;;;;;;;10.91;55.73;98496.00;10495922;28;20131;-66
2023/12/11 09:29:43;;;;;;;3.70;1.42;;;;;;;10.90;56.01;98479.47;10501826;28;20467;-65
2023/12/11 09:34:46;;;;;;;7.60;1.40;;;;;;;10.83;56.05;98501.84;10499720;28;20050;-66
2023/12/11 09:39:49;;;;;;;5.53;1.83;;;;;;;10.90;55.86;98489.09;10526850;28;20072;-66
2023/12/11 09:44:51;;;;;;;4.10;1.70;;;;;;;11.09;55.79;98504.97;10513613;28;20035;-67
2023/12/11 09:49:53;;;;;;;1.50;0.90;;;;;;;11.27;55.26;98519.91;10503424;28;20044;-66
2023/12/11 09:54:56;;;;;;;6.32;1.60;;;;;;;11.15;55.13;98513.09;10507991;28;20064;-66
2023/12/11 09:59:58;;;;;;;4.57;1.30;;;;;;;11.35;54.85;98506.19;10503827;28;20051;-66
2023/12/11 10:05:09;;;;;;;4.68;1.60;;;;;;;11.50;54.27;98512.72;10509381;28;20602;-66
2023/12/11 10:10:27;;;;;;;3.00;1.20;;;;;;;11.45;53.59;98496.59;10511582;28;20067;-67
2023/12/11 10:15:34;;;;;;;4.18;1.17;;;;;;;11.40;53.82;98518.91;10511817;28;20043;-65
2023/12/11 10:20:38;;;;;;;4.00;1.33;;;;;;;11.63;53.62;98512.50;10507481;28;20047;-66
2023/12/11 10:25:43;;;;;;;4.82;1.48;;;;;;;11.91;53.77;98509.13;10511583;28;20044;-66
2023/12/11 10:30:53;;;;;;;2.22;0.98;;;;;;;12.00;52.66;98527.50;10510670;28;20047;-66
2023/12/11 10:36:12;;;;;;;;;;;;;;;11.71;52.66;98536.22;10494581;28;20054;-66
2023/12/11 10:41:25;;;;;;;1.77;0.93;;;;;;;11.62;53.22;98527.38;10510652;28;19935;-65
2023/12/11 10:46:27;;;;;;;3.95;1.38;;;;;;;11.76;53.15;98536.69;10511915;28;20585;-66
2023/12/11 10:51:32;;;;;;;4.43;1.98;;;;;;;11.79;53.19;98525.91;10510373;28;20068;-66
2023/12/11 10:56:35;;;;;;;7.55;1.67;;;;;;;11.80;52.89;98536.28;10504040;28;20059;-66
2023/12/11 11:01:44;;;;;;;4.60;1.58;;;;;;;11.73;52.58;98534.31;10463881;28;20210;-66
2023/12/11 11:06:56;;;;;;;3.45;1.35;;;;;;;12.08;52.34;98542.56;10503055;28;20051;-66
2023/12/11 11:12:11;;;;;;;4.05;1.30;;;;;;;12.05;51.81;98534.94;10510576;28;20040;-66
2023/12/11 11:17:13;;;;;;;4.05;1.10;;;;;;;12.09;52.28;98538.97;10506614;28;20132;-67
2023/12/11 11:22:19;;;;;;;4.15;1.58;;;;;;;12.08;50.54;98550.41;10516298;28;20048;-66
2023/12/11 11:27:43;;;;;;;;;;;;;;;11.93;50.10;98562.22;10517675;28;20544;-66
2023/12/11 11:32:56;;;;;;;4.25;1.15;;;;;;;12.05;50.99;98558.53;10505972;28;19969;-66
2023/12/11 11:37:58;;;;;;;2.42;1.15;;;;;;;11.95;51.19;98558.50;10510513;28;20068;-66
2023/12/11 11:43:00;;;;;;;5.68;1.23;;;;;;;12.08;51.03;98564.34;10503198;28;20044;-66
2023/12/11 11:48:03;;;;;;;2.72;1.02;;;;;;;12.13;50.75;98561.31;10514474;27;20044;-67
2023/12/11 11:53:08;;;;;;;2.65;0.90;;;;;;;12.21;50.42;98595.56;10506971;28;20281;-66
2023/12/11 11:58:14;;;;;;;4.45;1.15;;;;;;;11.84;51.66;98587.44;10489608;28;20086;-67
2023/12/11 12:03:17;;;;;;;6.43;2.15;;;;;;;11.81;52.09;98592.09;10512828;28;20048;-67
2023/12/11 12:08:19;;;;;;;3.45;1.30;;;;;;;11.69;52.01;98590.53;10511685;28;20048;-66
2023/12/11 12:13:22;;;;;;;2.65;1.10;;;;;;;11.72;51.70;98590.28;10511882;28;20539;-66
2023/12/11 12:18:24;;;;;;;3.65;0.90;;;;;;;11.71;51.49;98592.06;10497071;28;20044;-66
2023/12/11 12:23:26;;;;;;;3.38;1.73;;;;;;;11.68;51.46;98602.78;10514032;28;20043;-66
2023/12/11 12:28:29;;;;;;;1.95;0.85;;;;;;;11.81;51.24;98608.66;10531818;28;20582;-66
2023/12/11 12:33:31;;;;;;;1.55;0.98;;;;;;;11.80;50.87;98611.41;10514404;28;20051;-67
2023/12/11 12:38:33;;;;;;;2.30;0.80;;;;;;;11.97;50.59;98613.38;10497194;28;20074;-66
2023/12/11 12:43:35;;;;;;;0.43;0.40;;;;;;;11.70;50.74;98619.19;10513435;28;20545;-66
2023/12/11 12:48:37;;;;;;;3.92;1.08;;;;;;;11.26;50.78;98635.19;10497343;28;20178;-66
2023/12/11 12:53:51;;;;;;;3.13;0.98;;;;;;;11.00;51.55;98647.78;10512090;28;20267;-66
2023/12/11 12:58:55;;;;;;;4.95;0.82;;;;;;;10.98;51.99;98662.78;10494030;28;20109;-66
2023/12/11 13:04:01;;;;;;;3.42;1.33;;;;;;;11.10;52.04;98659.19;10511109;28;20047;-66
2023/12/11 13:09:08;;;;;;;3.10;0.90;;;;;;;11.04;52.16;98670.16;10512799;28;20048;-67
2023/12/11 13:14:11;;;;;;;1.08;0.80;;;;;;;11.09;52.50;98651.47;10511005;28;20127;-66
2023/12/11 13:19:14;;;;;;;3.90;0.93;;;;;;;11.18;52.20;98650.69;10514364;28;20048;-66
2023/12/11 13:24:16;;;;;;;2.85;1.10;;;;;;;10.94;51.40;98653.53;10511928;28;20032;-66
2023/12/11 13:31:41;;;;;;;4.43;1.48;;;;;;;10.52;52.66;98652.56;10333975;28;20129;-66
2023/12/11 13:36:44;;;;;;;4.22;1.13;;;;;;;10.67;52.34;98658.34;10297272;28;20047;-65
2023/12/11 13:42:09;;;;;;;3.97;1.63;;;;;;;10.67;52.28;98647.91;10287568;28;20053;-65
2023/12/11 13:47:11;;;;;;;13.70;1.65;;;;;;;10.71;51.94;98662.38;10298336;28;20510;-65
2023/12/11 13:52:13;;;;;;;2.47;1.17;;;;;;;10.77;52.32;98680.19;10299005;28;20039;-65
2023/12/11 13:57:15;;;;;;;1.90;0.98;;;;;;;10.50;52.81;98705.94;10299768;28;20039;-65
2023/12/11 14:02:18;;;;;;;2.15;0.85;;;;;;;10.66;52.83;98700.31;10313057;28;20049;-66
2023/12/11 14:07:41;;;;;;;1.33;0.75;;;;;;;10.79;52.85;98712.28;10300289;28;20053;-66
2023/12/11 14:12:43;;;;;;;1.38;0.73;;;;;;;10.64;52.61;98708.28;10295887;28;20488;-67
2023/12/11 14:17:45;;;;;;;4.55;0.60;;;;;;;10.58;52.36;98713.16;10297168;28;20070;-66
2023/12/11 14:22:48;;;;;;;2.90;0.50;;;;;;;10.63;52.68;98722.31;10269213;28;20054;-66
2023/12/11 14:27:50;;;;;;;4.63;1.23;;;;;;;10.51;52.32;98731.09;10280764;28;20530;-67
2023/12/11 14:32:52;;;;;;;2.00;0.90;;;;;;;10.58;52.55;98739.31;10299653;28;20047;-66
2023/12/11 14:37:54;;;;;;;2.85;1.27;;;;;;;10.78;51.87;98752.47;10295421;28;20407;-65
2023/12/11 14:42:56;;;;;;;3.55;0.93;;;;;;;10.64;52.08;98744.06;10257299;28;20461;-66
2023/12/11 14:47:58;;;;;;;3.00;1.10;;;;;;;10.74;51.79;98764.13;10268796;28;20295;-66
2023/12/11 14:53:00;;;;;;;4.05;1.35;;;;;;;10.80;51.40;98778.50;10258310;28;20108;-66
2023/12/11 14:58:02;;;;;;;3.58;0.93;;;;;;;10.80;51.16;98773.28;10272248;28;20399;-66
2023/12/11 15:03:05;;;;;;;3.50;1.02;;;;;;;10.71;51.17;98780.06;10269813;28;20499;-66
2023/12/11 15:08:07;;;;;;;1.98;0.80;;;;;;;10.70;50.66;98791.47;10258372;28;20054;-66
2023/12/11 15:13:08;;;;;;;1.13;0.70;;;;;;;10.60;50.80;98794.94;10284861;28;20051;-65
2023/12/11 15:18:11;;;;;;;1.63;0.93;;;;;;;10.60;50.92;98795.75;10267293;28;20051;-65
2023/12/11 15:23:13;;;;;;;1.63;0.85;;;;;;;10.61;50.70;98802.66;10238071;28;20384;-66
2023/12/11 15:28:15;;;;;;;2.65;0.60;;;;;;;10.58;51.09;98804.66;10267382;28;20051;-66
2023/12/11 15:33:17;;;;;;;1.25;0.50;;;;;;;10.50;51.57;98813.13;10267957;28;20142;-65
2023/12/11 15:38:20;;;;;;;4.53;1.38;;;;;;;10.46;51.68;98824.75;10268924;28;20112;-66
2023/12/11 15:43:22;;;;;;;1.70;0.90;;;;;;;10.28;51.79;98828.75;10249476;28;20049;-66
2023/12/11 15:48:24;;;;;;;2.92;1.00;;;;;;;10.36;51.55;98837.66;10263943;28;20055;-65
2023/12/11 15:53:27;;;;;;;2.08;1.00;;;;;;;10.36;51.45;98855.97;10266770;28;20526;-65
2023/12/11 15:58:29;;;;;;;1.73;1.00;;;;;;;10.39;51.72;98866.19;10252123;28;20065;-66
2023/12/11 16:03:31;;;;;;;4.38;1.00;;;;;;;10.37;51.93;98877.72;10264941;28;20054;-65
2023/12/11 16:08:34;;;;;;;2.15;0.70;;;;;;;10.36;51.77;98887.34;10266211;28;20560;-66
2023/12/11 16:13:36;;;;;;;4.18;1.20;;;;;;;10.17;52.04;98876.59;10255813;28;20043;-65
2023/12/11 16:18:43;;;;;;;5.45;1.38;;;;;;;10.09;52.27;98885.97;10252455;28;20050;-66
2023/12/11 16:23:47;;;;;;;2.05;0.88;;;;;;;10.07;52.43;98891.31;10265939;28;20043;-66
2023/12/11 16:28:50;;;;;;;2.67;0.85;;;;;;;9.96;52.87;98901.69;10237425;28;20058;-66
2023/12/11 16:33:52;;;;;;;4.32;1.00;;;;;;;9.92;53.20;98905.47;10262280;28;20050;-66
2023/12/11 16:38:58;;;;;;;1.55;0.95;;;;;;;9.82;53.49;98911.47;10271257;28;20484;-65
2023/12/11 16:44:01;;;;;;;2.33;1.13;;;;;;;9.64;53.80;98914.47;10260468;28;20054;-65
2023/12/11 16:49:03;;;;;;;5.35;1.30;;;;;;;9.68;53.77;98909.88;10265538;28;20093;-66
2023/12/11 16:54:06;;;;;;;3.80;1.50;;;;;;;9.65;53.81;98926.56;10261714;28;20058;-66
2023/12/11 16:59:09;;;;;;;1.77;1.10;;;;;;;9.61;54.05;98924.28;10265596;28;20046;-66
2023/12/11 17:04:12;;;;;;;4.72;1.42;;;;;;;9.37;55.01;98944.28;10264710;28;20053;-66
2023/12/11 17:09:14;;;;;;;5.22;1.42;;;;;;;9.33;55.12;98943.66;10256497;28;20388;-66
2023/12/11 17:14:16;;;;;;;5.18;1.52;;;;;;;9.37;55.47;98947.72;10263023;28;20053;-66
2023/12/11 17:19:18;;;;;;;1.02;0.75;;;;;;;9.52;55.48;98953.66;10263922;28;20418;-66
2023/12/11 17:24:20;;;;;;;1.77;1.02;;;;;;;9.64;55.44;98956.22;10262932;28;20467;-66
2023/12/11 17:29:22;;;;;;;2.35;0.85;;;;;;;9.81;55.27;98967.28;10264451;28;20573;-66
2023/12/11 17:34:24;;;;;;;2.25;1.05;;;;;;;9.89;55.61;98980.63;10266374;28;20129;-66
2023/12/11 17:39:26;;;;;;;1.63;0.82;;;;;;;9.92;55.88;98986.44;10263975;28;20039;-66
2023/12/11 17:44:28;;;;;;;3.40;0.90;;;;;;;9.91;56.50;98989.16;10252722;28;21235;-65
2023/12/11 17:49:30;;;;;;;3.72;1.20;;;;;;;9.86;57.09;98991.25;10261241;28;20584;-66
2023/12/11 17:54:32;;;;;;;2.55;1.40;;;;;;;9.62;57.69;98989.44;10267122;28;20127;-66
2023/12/11 17:59:34;;;;;;;3.42;1.65;;;;;;;9.33;58.22;98990.63;10263439;28;20134;-65
2023/12/11 18:04:38;;;;;;;3.45;1.20;;;;;;;9.05;58.86;99001.31;10263073;28;20047;-65
2023/12/11 18:09:40;;;;;;;3.97;1.52;;;;;;;8.88;59.03;98996.38;10262425;28;20051;-66
2023/12/11 18:14:43;;;;;;;3.95;1.35;;;;;;;8.93;58.83;98999.53;10264473;28;20038;-66
2023/12/11 18:19:46;;;;;;;3.30;1.73;;;;;;;8.82;59.59;99007.22;10268893;28;20410;-66
2023/12/11 18:24:48;;;;;;;2.58;1.25;;;;;;;8.74;59.75;99012.13;10269949;28;20051;-64
2023/12/11 18:29:50;;;;;;;3.42;0.90;;;;;;;8.89;59.80;99018.09;10265695;28;20545;-64
2023/12/11 18:34:54;;;;;;;5.38;1.52;;;;;;;8.89;59.79;99031.13;10267541;28;20051;-64
2023/12/11 18:39:56;;;;;;;7.03;1.55;;;;;;;8.96;60.43;99032.38;10271831;28;20042;-66
2023/12/11 18:44:58;;;;;;;2.45;1.20;;;;;;;9.21;59.33;99035.00;10267632;28;20422;-63
2023/12/11 18:50:00;;;;;;;5.32;1.48;;;;;;;9.06;59.99;99025.59;10259164;28;20082;-65
2023/12/11 18:55:03;;;;;;;3.08;1.30;;;;;;;8.82;60.20;99031.53;10269269;28;20124;-64
2023/12/11 19:00:08;;;;;;;2.28;1.10;;;;;;;8.81;59.86;99027.25;10290018;28;20461;-64
2023/12/11 19:05:10;;;;;;;8.25;2.15;;;;;;;8.72;59.70;99047.88;10272302;28;20213;-66
2023/12/11 19:10:12;;;;;;;5.38;2.10;;;;;;;8.74;59.35;99059.88;10268412;28;20139;-64
2023/12/11 19:15:15;;;;;;;4.35;1.50;;;;;;;8.68;59.27;99056.84;10243068;28;20374;-64
2023/12/11 19:20:18;;;;;;;2.53;1.35;;;;;;;8.66;59.28;99063.94;10268905;28;20308;-64
2023/12/11 19:25:20;;;;;;;3.22;1.10;;;;;;;8.69;59.06;99077.59;10284251;28;20048;-65
2023/12/11 19:30:23;;;;;;;4.03;1.52;;;;;;;8.63;59.02;99091.03;10225989;28;20054;-65
2023/12/11 19:35:25;;;;;;;7.75;2.40;;;;;;;8.60;59.13;99100.81;10235978;28;20051;-65
2023/12/11 19:40:27;;;;;;;4.20;2.03;;;;;;;8.51;59.21;99099.63;10230244;28;20253;-65
2023/12/11 19:45:29;;;;;;;3.83;1.80;;;;;;;8.50;58.85;99094.53;10228449;28;20093;-66
2023/12/11 19:50:31;;;;;;;5.32;1.60;;;;;;;8.40;59.07;99098.66;10232572;28;20168;-65
2023/12/11 19:55:33;;;;;;;9.07;2.15;;;;;;;8.42;58.90;99094.19;10231468;28;20043;-65
2023/12/11 20:00:35;;;;;;;2.95;1.63;;;;;;;8.47;58.79;99100.78;10212126;28;20108;-66
2023/12/11 20:05:37;;;;;;;9.75;1.60;;;;;;;8.38;58.66;99111.78;10229233;28;20047;-65
2023/12/11 20:10:39;;;;;;;2.53;1.35;;;;;;;8.42;58.70;99122.84;10230932;28;20050;-66
2023/12/11 20:15:41;;;;;;;6.10;2.03;;;;;;;8.38;58.33;99105.75;10230993;28;20055;-66
2023/12/11 20:20:43;;;;;;;4.85;1.77;;;;;;;8.34;58.48;99114.69;10229135;28;20546;-65
2023/12/11 20:25:45;;;;;;;7.68;1.58;;;;;;;8.39;58.19;99123.03;10229092;28;20049;-65
2023/12/11 20:30:47;;;;;;;6.85;2.00;;;;;;;8.42;58.28;99125.47;10262844;28;20142;-66
2023/12/11 20:35:50;;;;;;;4.32;2.03;;;;;;;8.46;58.29;99124.31;10274249;28;20051;-67
2023/12/11 20:40:52;;;;;;;7.25;2.78;;;;;;;8.59;58.50;99131.25;10264629;28;20062;-64
2023/12/11 20:45:54;;;;;;;6.03;1.85;;;;;;;8.86;58.31;99141.66;10273861;28;20038;-64
2023/12/11 20:50:56;;;;;;;12.98;2.50;;;;;;;8.92;58.40;99143.88;10267296;28;20057;-64
2023/12/11 20:55:58;;;;;;;4.43;2.03;;;;;;;9.15;58.06;99158.03;10276792;28;20035;-65
2023/12/11 21:01:00;;;;;;;4.93;2.00;;;;;;;9.17;58.15;99161.34;10269566;28;20461;-64
2023/12/11 21:06:03;;;;;;;9.43;4.00;;;;;;;9.21;58.11;99148.03;10287526;28;20054;-64
2023/12/11 21:11:05;;;;;;;5.97;2.67;;;;;;;9.28;58.11;99156.28;10273137;28;20046;-64
2023/12/11 21:16:11;;;;;;;8.52;2.60;;;;;;;9.30;58.28;99170.06;10258263;28;20057;-64
2023/12/11 21:21:20;;;;;;;6.63;2.72;;;;;;;9.38;58.25;99168.59;10270760;28;20046;-66
2023/12/11 21:26:23;;;;;;;6.13;2.25;;;;;;;9.34;58.39;99188.00;10270277;28;20051;-66
2023/12/11 21:31:30;;;;;;;4.90;1.67;;;;;;;9.41;58.50;99178.00;10268464;28;20050;-66
2023/12/11 21:36:33;;;;;;;6.35;1.48;;;;;;;9.40;58.43;99171.94;10263535;28;20035;-65
2023/12/11 21:41:35;;;;;;;4.22;1.67;;;;;;;9.44;58.47;99181.22;10272824;28;20058;-67
2023/12/11 21:46:37;;;;;;;5.65;1.70;;;;;;;9.47;58.61;99181.03;10272028;28;20034;-66
2023/12/11 21:51:39;;;;;;;8.00;1.90;;;;;;;9.42;58.81;99177.88;10271620;28;20043;-66
2023/12/11 21:56:41;;;;;;;6.85;2.33;;;;;;;9.37;59.13;99193.03;10273142;28;20058;-66
2023/12/11 22:01:43;;;;;;;5.97;2.28;;;;;;;9.45;59.02;99185.53;10272369;28;20325;-66
2023/12/11 22:06:45;;;;;;;6.30;1.75;;;;;;;9.50;59.09;99191.25;10266179;28;20047;-65
2023/12/11 22:11:47;;;;;;;14.13;2.20;;;;;;;9.36;59.71;99191.34;10258348;28;20054;-65
2023/12/11 22:16:49;;;;;;;7.53;2.50;;;;;;;9.43;59.66;99189.16;10275674;28;20128;-66
2023/12/11 22:21:51;;;;;;;11.82;2.35;;;;;;;9.33;59.89;99186.34;10271566;28;20390;-64
2023/12/11 22:26:53;;;;;;;5.47;1.50;;;;;;;9.26;60.16;99211.16;10264396;28;20047;-64
2023/12/11 22:31:55;;;;;;;7.35;2.15;;;;;;;9.13;60.30;99202.47;10401051;28;20176;-64
2023/12/11 22:36:57;;;;;;;7.55;2.20;;;;;;;9.16;60.21;99204.88;10400516;28;20493;-64
2023/12/11 22:41:59;;;;;;;5.10;1.50;;;;;;;9.23;60.00;99197.47;10400536;28;20437;-65
2023/12/11 22:47:01;;;;;;;6.72;2.10;;;;;;;9.27;59.89;99202.41;10400426;28;20050;-64
2023/12/11 22:52:04;;;;;;;8.93;1.50;;;;;;;9.34;59.64;99210.66;10401406;28;20203;-64
2023/12/11 22:57:06;;;;;;;6.65;1.77;;;;;;;9.16;59.76;99224.88;10400412;28;20053;-64
2023/12/11 23:02:08;;;;;;;4.97;2.38;;;;;;;9.17;59.33;99227.41;10402282;28;20161;-65
2023/12/11 23:07:11;;;;;;;6.72;1.42;;;;;;;9.29;59.15;99231.84;10401976;28;20060;-64
2023/12/11 23:12:16;;;;;;;4.90;1.30;;;;;;;9.37;58.77;99231.31;10400663;28;20049;-64
2023/12/11 23:17:19;;;;;;;3.92;1.63;;;;;;;9.34;58.45;99224.53;10399467;28;20599;-66
2023/12/11 23:22:21;;;;;;;4.90;1.48;;;;;;;9.38;58.07;99217.34;10398812;28;20737;-64
2023/12/11 23:27:23;;;;;;;10.95;2.15;;;;;;;9.24;58.03;99227.88;10385562;28;20134;-65
2023/12/11 23:32:25;;;;;;;6.45;1.83;;;;;;;9.26;57.37;99228.59;10255747;28;20169;-64
2023/12/11 23:37:27;;;;;;;7.97;1.90;;;;;;;9.23;57.59;99239.22;10270298;28;20042;-65
2023/12/11 23:42:30;;;;;;;4.20;1.30;;;;;;;9.19;57.01;99233.38;10263136;28;20207;-64
2023/12/11 23:47:33;;;;;;;4.05;0.90;;;;;;;9.15;56.75;99234.50;10270841;28;20061;-65